sensor_id;sensor_type;location;lat;lon;timestamp;pressure;altitude;pressure_sealevel;temperature;humidity
11077;BME280;5591;42.626;23.380;2023-06-19T00:00:06;94267.44;;;20.10;100.00
11077;BME280;5591;42.626;23.380;2023-06-19T00:02:38;94293.63;;;20.34;100.00
11077;BME280;5591;42.626;23.380;2023-06-19T00:05:07;94292.16;;;20.64;100.00
11077;BME280;5591;42.626;23.380;2023-06-19T00:07:35;94290.34;;;20.27;100.00
11077;BME280;5591;42.626;23.380;2023-06-19T00:10:03;94292.28;;;20.15;100.00
11077;BME280;5591;42.626;23.380;2023-06-19T00:12:31;94283.59;;;20.03;100.00
11077;BME280;5591;42.626;23.380;2023-06-19T00:14:58;94290.19;;;20.17;100.00
11077;BME280;5591;42.626;23.380;2023-06-19T00:17:25;94280.81;;;19.82;100.00
11077;BME280;5591;42.626;23.380;2023-06-19T00:19:52;94239.59;;;19.51;100.00
11077;BME280;5591;42.626;23.380;2023-06-19T00:22:21;94280.25;;;19.63;100.00
11077;BME280;5591;42.626;23.380;2023-06-19T00:24:48;94278.66;;;19.62;100.00
11077;BME280;5591;42.626;23.380;2023-06-19T00:27:14;94271.94;;;19.76;100.00
11077;BME280;5591;42.626;23.380;2023-06-19T00:29:41;94273.72;;;19.54;100.00
11077;BME280;5591;42.626;23.380;2023-06-19T00:32:08;94274.09;;;19.46;100.00
11077;BME280;5591;42.626;23.380;2023-06-19T00:34:35;94272.16;;;19.25;100.00
11077;BME280;5591;42.626;23.380;2023-06-19T00:37:03;94272.81;;;19.49;100.00
11077;BME280;5591;42.626;23.380;2023-06-19T00:39:32;94269.19;;;19.38;100.00
11077;BME280;5591;42.626;23.380;2023-06-19T00:41:59;94267.25;;;19.34;100.00
11077;BME280;5591;42.626;23.380;2023-06-19T00:44:25;94261.22;;;19.38;100.00
11077;BME280;5591;42.626;23.380;2023-06-19T00:46:57;94267.09;;;19.24;100.00
11077;BME280;5591;42.626;23.380;2023-06-19T00:49:24;94259.31;;;19.22;100.00
11077;BME280;5591;42.626;23.380;2023-06-19T00:51:52;94247.72;;;19.28;100.00
11077;BME280;5591;42.626;23.380;2023-06-19T00:54:19;94260.94;;;19.23;100.00
11077;BME280;5591;42.626;23.380;2023-06-19T00:56:48;94266.59;;;19.27;100.00
11077;BME280;5591;42.626;23.380;2023-06-19T00:59:16;94183.44;;;18.75;100.00
11077;BME280;5591;42.626;23.380;2023-06-19T01:01:44;94259.25;;;19.06;100.00
11077;BME280;5591;42.626;23.380;2023-06-19T01:04:11;94270.88;;;19.28;100.00
11077;BME280;5591;42.626;23.380;2023-06-19T01:06:43;94199.69;;;19.07;100.00
11077;BME280;5591;42.626;23.380;2023-06-19T01:09:16;94243.34;;;19.22;100.00
11077;BME280;5591;42.626;23.380;2023-06-19T01:11:47;94247.13;;;19.26;100.00
11077;BME280;5591;42.626;23.380;2023-06-19T01:14:21;94237.00;;;19.40;100.00
11077;BME280;5591;42.626;23.380;2023-06-19T01:16:48;94236.66;;;19.53;100.00
11077;BME280;5591;42.626;23.380;2023-06-19T01:19:18;94243.94;;;19.41;100.00
11077;BME280;5591;42.626;23.380;2023-06-19T01:21:46;94245.69;;;19.35;100.00
11077;BME280;5591;42.626;23.380;2023-06-19T01:24:15;94249.91;;;19.31;100.00
11077;BME280;5591;42.626;23.380;2023-06-19T01:26:42;94252.19;;;19.39;100.00
11077;BME280;5591;42.626;23.380;2023-06-19T01:29:12;94250.06;;;19.41;100.00
11077;BME280;5591;42.626;23.380;2023-06-19T01:31:44;94251.03;;;19.35;100.00
11077;BME280;5591;42.626;23.380;2023-06-19T01:34:14;94251.91;;;19.41;100.00
11077;BME280;5591;42.626;23.380;2023-06-19T01:36:42;94246.59;;;18.96;100.00
11077;BME280;5591;42.626;23.380;2023-06-19T01:39:10;94250.91;;;18.86;100.00
11077;BME280;5591;42.626;23.380;2023-06-19T01:41:40;94253.03;;;18.72;100.00
11077;BME280;5591;42.626;23.380;2023-06-19T01:44:08;94251.84;;;18.52;100.00
11077;BME280;5591;42.626;23.380;2023-06-19T01:46:35;94258.22;;;18.39;100.00
11077;BME280;5591;42.626;23.380;2023-06-19T01:49:06;94253.81;;;18.45;100.00
11077;BME280;5591;42.626;23.380;2023-06-19T01:51:33;94256.41;;;18.05;100.00
11077;BME280;5591;42.626;23.380;2023-06-19T01:54:00;94275.69;;;18.01;100.00
11077;BME280;5591;42.626;23.380;2023-06-19T01:56:26;94255.81;;;17.92;100.00
11077;BME280;5591;42.626;23.380;2023-06-19T01:58:55;94252.81;;;18.11;100.00
11077;BME280;5591;42.626;23.380;2023-06-19T02:01:22;94256.16;;;18.18;100.00
11077;BME280;5591;42.626;23.380;2023-06-19T02:03:49;94266.81;;;18.07;100.00
11077;BME280;5591;42.626;23.380;2023-06-19T02:06:15;94261.03;;;17.98;100.00
11077;BME280;5591;42.626;23.380;2023-06-19T02:08:42;94270.38;;;18.01;100.00
11077;BME280;5591;42.626;23.380;2023-06-19T02:11:09;94197.91;;;17.55;100.00
11077;BME280;5591;42.626;23.380;2023-06-19T02:13:36;94278.69;;;17.93;100.00
11077;BME280;5591;42.626;23.380;2023-06-19T02:16:04;94279.84;;;17.85;100.00
11077;BME280;5591;42.626;23.380;2023-06-19T02:18:31;94269.78;;;17.87;100.00
11077;BME280;5591;42.626;23.380;2023-06-19T02:20:58;94280.88;;;17.84;100.00
11077;BME280;5591;42.626;23.380;2023-06-19T02:23:25;94274.19;;;17.70;100.00
11077;BME280;5591;42.626;23.380;2023-06-19T02:25:52;94276.16;;;17.63;100.00
11077;BME280;5591;42.626;23.380;2023-06-19T02:28:18;94280.66;;;17.63;100.00
11077;BME280;5591;42.626;23.380;2023-06-19T02:30:45;94276.38;;;17.51;100.00
11077;BME280;5591;42.626;23.380;2023-06-19T02:33:13;94269.44;;;17.50;100.00
11077;BME280;5591;42.626;23.380;2023-06-19T02:35:40;94283.88;;;17.54;100.00
11077;BME280;5591;42.626;23.380;2023-06-19T02:38:09;94272.53;;;17.35;100.00
11077;BME280;5591;42.626;23.380;2023-06-19T02:40:37;94281.03;;;17.26;100.00
11077;BME280;5591;42.626;23.380;2023-06-19T02:43:04;94291.81;;;17.13;100.00
11077;BME280;5591;42.626;23.380;2023-06-19T02:45:31;94287.69;;;17.17;100.00
11077;BME280;5591;42.626;23.380;2023-06-19T02:47:58;94283.38;;;17.04;100.00
11077;BME280;5591;42.626;23.380;2023-06-19T02:50:26;94285.66;;;17.01;100.00
11077;BME280;5591;42.626;23.380;2023-06-19T02:52:53;94295.00;;;17.03;100.00
11077;BME280;5591;42.626;23.380;2023-06-19T02:55:20;94284.34;;;16.92;100.00
11077;BME280;5591;42.626;23.380;2023-06-19T02:57:46;94288.97;;;16.85;100.00
11077;BME280;5591;42.626;23.380;2023-06-19T03:00:14;94283.34;;;16.93;100.00
11077;BME280;5591;42.626;23.380;2023-06-19T03:02:41;94284.19;;;17.05;100.00
11077;BME280;5591;42.626;23.380;2023-06-19T03:05:09;94284.72;;;17.25;100.00
11077;BME280;5591;42.626;23.380;2023-06-19T03:07:38;94295.06;;;17.15;100.00
11077;BME280;5591;42.626;23.380;2023-06-19T03:10:05;94286.88;;;17.16;100.00
11077;BME280;5591;42.626;23.380;2023-06-19T03:12:32;94291.03;;;17.24;100.00
11077;BME280;5591;42.626;23.380;2023-06-19T03:14:59;94299.56;;;17.14;100.00
11077;BME280;5591;42.626;23.380;2023-06-19T03:17:26;94282.50;;;17.22;100.00
11077;BME280;5591;42.626;23.380;2023-06-19T03:19:52;94285.13;;;17.10;100.00
11077;BME280;5591;42.626;23.380;2023-06-19T03:22:20;94293.09;;;17.10;100.00
11077;BME280;5591;42.626;23.380;2023-06-19T03:24:48;94283.16;;;17.06;100.00
11077;BME280;5591;42.626;23.380;2023-06-19T03:27:15;94282.75;;;16.91;100.00
11077;BME280;5591;42.626;23.380;2023-06-19T03:29:42;94317.84;;;17.04;100.00
11077;BME280;5591;42.626;23.380;2023-06-19T03:32:09;94286.25;;;16.55;100.00
11077;BME280;5591;42.626;23.380;2023-06-19T03:34:35;94285.13;;;17.10;100.00
11077;BME280;5591;42.626;23.380;2023-06-19T03:37:02;94281.91;;;17.20;100.00
11077;BME280;5591;42.626;23.380;2023-06-19T03:39:29;94284.06;;;17.41;100.00
11077;BME280;5591;42.626;23.380;2023-06-19T03:41:57;94288.22;;;17.37;100.00
11077;BME280;5591;42.626;23.380;2023-06-19T03:44:24;94291.53;;;17.32;100.00
11077;BME280;5591;42.626;23.380;2023-06-19T03:46:51;94294.13;;;17.50;100.00
11077;BME280;5591;42.626;23.380;2023-06-19T03:49:18;94285.72;;;17.64;100.00
11077;BME280;5591;42.626;23.380;2023-06-19T03:51:45;94289.06;;;17.60;100.00
11077;BME280;5591;42.626;23.380;2023-06-19T03:54:11;94285.72;;;17.64;100.00
11077;BME280;5591;42.626;23.380;2023-06-19T03:56:38;94298.75;;;17.77;100.00
11077;BME280;5591;42.626;23.380;2023-06-19T03:59:06;94288.06;;;17.84;100.00
11077;BME280;5591;42.626;23.380;2023-06-19T04:01:33;94292.09;;;17.75;100.00
11077;BME280;5591;42.626;23.380;2023-06-19T04:04:00;94281.00;;;17.66;100.00
11077;BME280;5591;42.626;23.380;2023-06-19T04:06:27;94276.38;;;17.96;100.00
11077;BME280;5591;42.626;23.380;2023-06-19T04:08:54;94270.50;;;18.06;100.00
11077;BME280;5591;42.626;23.380;2023-06-19T04:11:20;94266.06;;;18.46;100.00
11077;BME280;5591;42.626;23.380;2023-06-19T04:13:47;94280.44;;;18.73;100.00
11077;BME280;5591;42.626;23.380;2023-06-19T04:16:15;94283.16;;;18.89;100.00
11077;BME280;5591;42.626;23.380;2023-06-19T04:18:42;94277.50;;;19.14;100.00
11077;BME280;5591;42.626;23.380;2023-06-19T04:21:09;94283.63;;;19.26;100.00
11077;BME280;5591;42.626;23.380;2023-06-19T04:23:36;94274.75;;;19.37;100.00
11077;BME280;5591;42.626;23.380;2023-06-19T04:26:03;94275.50;;;19.49;100.00
11077;BME280;5591;42.626;23.380;2023-06-19T04:28:29;94280.31;;;19.68;100.00
11077;BME280;5591;42.626;23.380;2023-06-19T04:30:56;94274.22;;;19.68;100.00
11077;BME280;5591;42.626;23.380;2023-06-19T04:33:28;94280.59;;;19.83;100.00
11077;BME280;5591;42.626;23.380;2023-06-19T04:35:55;94223.06;;;19.66;100.00
11077;BME280;5591;42.626;23.380;2023-06-19T04:38:22;94269.59;;;20.13;100.00
11077;BME280;5591;42.626;23.380;2023-06-19T04:40:50;94252.63;;;20.02;100.00
11077;BME280;5591;42.626;23.380;2023-06-19T04:43:16;94268.81;;;20.33;100.00
11077;BME280;5591;42.626;23.380;2023-06-19T04:45:44;94283.50;;;20.52;100.00
11077;BME280;5591;42.626;23.380;2023-06-19T04:48:11;94280.50;;;20.49;100.00
11077;BME280;5591;42.626;23.380;2023-06-19T04:50:39;94276.84;;;20.55;100.00
11077;BME280;5591;42.626;23.380;2023-06-19T04:53:05;94290.94;;;20.50;100.00
11077;BME280;5591;42.626;23.380;2023-06-19T04:55:32;94270.28;;;20.62;100.00
11077;BME280;5591;42.626;23.380;2023-06-19T04:57:59;94284.22;;;20.48;100.00
11077;BME280;5591;42.626;23.380;2023-06-19T05:00:26;94286.38;;;20.51;100.00
11077;BME280;5591;42.626;23.380;2023-06-19T05:02:53;94282.09;;;20.88;100.00
11077;BME280;5591;42.626;23.380;2023-06-19T05:05:25;94282.50;;;21.01;100.00
11077;BME280;5591;42.626;23.380;2023-06-19T05:07:53;94271.47;;;20.71;100.00
11077;BME280;5591;42.626;23.380;2023-06-19T05:10:20;94277.34;;;20.95;100.00
11077;BME280;5591;42.626;23.380;2023-06-19T05:12:47;94271.19;;;21.16;100.00
11077;BME280;5591;42.626;23.380;2023-06-19T05:15:13;94277.84;;;21.40;100.00
11077;BME280;5591;42.626;23.380;2023-06-19T05:17:40;94293.09;;;21.44;100.00
11077;BME280;5591;42.626;23.380;2023-06-19T05:20:08;94280.69;;;21.60;100.00
11077;BME280;5591;42.626;23.380;2023-06-19T05:22:35;94283.84;;;21.52;100.00
11077;BME280;5591;42.626;23.380;2023-06-19T05:25:04;94277.06;;;21.71;100.00
11077;BME280;5591;42.626;23.380;2023-06-19T05:27:31;94281.28;;;21.35;100.00
11077;BME280;5591;42.626;23.380;2023-06-19T05:29:58;94288.16;;;21.31;100.00
11077;BME280;5591;42.626;23.380;2023-06-19T05:32:25;94301.00;;;20.48;100.00
11077;BME280;5591;42.626;23.380;2023-06-19T05:34:52;94305.78;;;20.09;100.00
11077;BME280;5591;42.626;23.380;2023-06-19T05:37:19;94307.56;;;20.20;100.00
11077;BME280;5591;42.626;23.380;2023-06-19T05:39:47;94311.22;;;20.51;100.00
11077;BME280;5591;42.626;23.380;2023-06-19T05:42:15;94299.72;;;20.13;100.00
11077;BME280;5591;42.626;23.380;2023-06-19T05:44:42;94286.47;;;20.02;100.00
11077;BME280;5591;42.626;23.380;2023-06-19T05:47:09;94325.84;;;20.49;100.00
11077;BME280;5591;42.626;23.380;2023-06-19T05:49:37;94309.97;;;20.80;100.00
11077;BME280;5591;42.626;23.380;2023-06-19T05:52:07;94313.06;;;20.51;100.00
11077;BME280;5591;42.626;23.380;2023-06-19T05:54:34;94252.41;;;20.41;100.00
11077;BME280;5591;42.626;23.380;2023-06-19T05:57:01;94311.91;;;20.63;100.00
11077;BME280;5591;42.626;23.380;2023-06-19T05:59:29;94303.97;;;20.31;100.00
11077;BME280;5591;42.626;23.380;2023-06-19T06:01:56;94312.97;;;20.62;100.00
11077;BME280;5591;42.626;23.380;2023-06-19T06:04:23;94313.00;;;20.67;100.00
11077;BME280;5591;42.626;23.380;2023-06-19T06:06:49;94314.34;;;20.86;100.00
11077;BME280;5591;42.626;23.380;2023-06-19T06:09:16;94317.97;;;21.23;100.00
11077;BME280;5591;42.626;23.380;2023-06-19T06:11:43;94321.03;;;21.32;100.00
11077;BME280;5591;42.626;23.380;2023-06-19T06:14:10;94324.00;;;21.35;100.00
11077;BME280;5591;42.626;23.380;2023-06-19T06:16:38;94319.69;;;21.08;100.00
11077;BME280;5591;42.626;23.380;2023-06-19T06:19:05;94318.41;;;20.89;100.00
11077;BME280;5591;42.626;23.380;2023-06-19T06:21:32;94313.97;;;21.21;100.00
11077;BME280;5591;42.626;23.380;2023-06-19T06:24:00;94317.16;;;20.96;100.00
11077;BME280;5591;42.626;23.380;2023-06-19T06:26:27;94324.13;;;21.24;100.00
11077;BME280;5591;42.626;23.380;2023-06-19T06:28:54;94304.72;;;21.07;100.00
11077;BME280;5591;42.626;23.380;2023-06-19T06:31:22;94324.28;;;21.39;100.00
11077;BME280;5591;42.626;23.380;2023-06-19T06:33:50;94321.91;;;21.42;100.00
11077;BME280;5591;42.626;23.380;2023-06-19T06:36:17;94327.81;;;21.66;100.00
11077;BME280;5591;42.626;23.380;2023-06-19T06:38:44;94312.94;;;21.53;100.00
11077;BME280;5591;42.626;23.380;2023-06-19T06:41:11;94326.63;;;21.83;100.00
11077;BME280;5591;42.626;23.380;2023-06-19T06:43:40;94326.47;;;21.95;100.00
11077;BME280;5591;42.626;23.380;2023-06-19T06:46:08;94328.88;;;21.65;100.00
11077;BME280;5591;42.626;23.380;2023-06-19T06:48:35;94319.00;;;21.44;100.00
11077;BME280;5591;42.626;23.380;2023-06-19T06:51:03;94328.22;;;21.58;100.00
11077;BME280;5591;42.626;23.380;2023-06-19T06:53:30;94331.72;;;21.58;100.00
11077;BME280;5591;42.626;23.380;2023-06-19T06:55:58;94337.00;;;21.80;100.00
11077;BME280;5591;42.626;23.380;2023-06-19T06:58:26;94344.69;;;22.03;100.00
11077;BME280;5591;42.626;23.380;2023-06-19T07:00:53;94329.53;;;22.13;100.00
11077;BME280;5591;42.626;23.380;2023-06-19T07:03:20;94331.75;;;22.58;100.00
11077;BME280;5591;42.626;23.380;2023-06-19T07:05:47;94319.09;;;22.43;100.00
11077;BME280;5591;42.626;23.380;2023-06-19T07:08:15;94315.56;;;22.06;100.00
11077;BME280;5591;42.626;23.380;2023-06-19T07:10:42;94353.16;;;22.21;100.00
11077;BME280;5591;42.626;23.380;2023-06-19T07:13:09;94334.47;;;22.63;98.66
11077;BME280;5591;42.626;23.380;2023-06-19T07:15:36;94329.19;;;22.78;97.51
11077;BME280;5591;42.626;23.380;2023-06-19T07:18:03;94325.53;;;22.98;95.04
11077;BME280;5591;42.626;23.380;2023-06-19T07:20:30;94330.59;;;22.90;94.82
11077;BME280;5591;42.626;23.380;2023-06-19T07:22:57;94340.13;;;23.22;93.66
11077;BME280;5591;42.626;23.380;2023-06-19T07:25:26;94332.59;;;23.14;89.56
11077;BME280;5591;42.626;23.380;2023-06-19T07:27:53;94329.22;;;22.88;94.08
11077;BME280;5591;42.626;23.380;2023-06-19T07:30:20;94333.56;;;22.98;92.56
11077;BME280;5591;42.626;23.380;2023-06-19T07:32:47;94336.72;;;22.86;90.08
11077;BME280;5591;42.626;23.380;2023-06-19T07:35:14;94338.56;;;22.75;91.35
11077;BME280;5591;42.626;23.380;2023-06-19T07:37:41;94339.56;;;23.20;90.18
11077;BME280;5591;42.626;23.380;2023-06-19T07:40:08;94336.28;;;23.03;85.81
11077;BME280;5591;42.626;23.380;2023-06-19T07:42:37;94337.03;;;23.55;86.56
11077;BME280;5591;42.626;23.380;2023-06-19T07:45:05;94342.06;;;23.47;88.51
11077;BME280;5591;42.626;23.380;2023-06-19T07:47:32;94338.72;;;23.05;91.89
11077;BME280;5591;42.626;23.380;2023-06-19T07:49:58;94332.41;;;23.41;84.80
11077;BME280;5591;42.626;23.380;2023-06-19T07:52:25;94319.75;;;23.16;85.04
11077;BME280;5591;42.626;23.380;2023-06-19T07:54:53;94335.13;;;23.56;82.74
11077;BME280;5591;42.626;23.380;2023-06-19T07:57:20;94322.63;;;23.91;82.56
11077;BME280;5591;42.626;23.380;2023-06-19T07:59:50;94335.47;;;23.94;82.06
11077;BME280;5591;42.626;23.380;2023-06-19T08:02:17;94284.41;;;23.29;83.23
11077;BME280;5591;42.626;23.380;2023-06-19T08:04:45;94325.50;;;23.65;84.00
11077;BME280;5591;42.626;23.380;2023-06-19T08:07:12;94271.97;;;22.94;84.72
11077;BME280;5591;42.626;23.380;2023-06-19T08:09:39;94334.69;;;23.84;83.66
11077;BME280;5591;42.626;23.380;2023-06-19T08:12:06;94349.19;;;23.93;83.99
11077;BME280;5591;42.626;23.380;2023-06-19T08:14:33;94335.47;;;23.84;81.91
11077;BME280;5591;42.626;23.380;2023-06-19T08:17:01;94332.00;;;24.29;80.53
11077;BME280;5591;42.626;23.380;2023-06-19T08:19:28;94336.50;;;23.68;79.18
11077;BME280;5591;42.626;23.380;2023-06-19T08:21:55;94335.72;;;23.73;73.80
11077;BME280;5591;42.626;23.380;2023-06-19T08:24:22;94329.84;;;23.86;75.07
11077;BME280;5591;42.626;23.380;2023-06-19T08:26:48;94343.97;;;23.46;70.91
11077;BME280;5591;42.626;23.380;2023-06-19T08:29:17;94340.75;;;23.49;72.07
11077;BME280;5591;42.626;23.380;2023-06-19T08:31:44;94325.56;;;24.10;73.04
11077;BME280;5591;42.626;23.380;2023-06-19T08:34:12;94366.63;;;24.55;71.25
11077;BME280;5591;42.626;23.380;2023-06-19T08:36:39;94336.31;;;24.55;73.04
11077;BME280;5591;42.626;23.380;2023-06-19T08:39:06;94334.97;;;24.22;63.55
11077;BME280;5591;42.626;23.380;2023-06-19T08:41:34;94359.94;;;24.23;66.37
11077;BME280;5591;42.626;23.380;2023-06-19T08:44:01;94339.50;;;23.97;63.31
11077;BME280;5591;42.626;23.380;2023-06-19T08:46:28;94310.22;;;23.70;63.24
11077;BME280;5591;42.626;23.380;2023-06-19T08:48:55;94343.53;;;24.14;65.81
11077;BME280;5591;42.626;23.380;2023-06-19T08:51:23;94331.72;;;24.35;63.15
11077;BME280;5591;42.626;23.380;2023-06-19T08:53:55;94340.31;;;24.32;62.73
11077;BME280;5591;42.626;23.380;2023-06-19T08:56:22;94328.78;;;24.27;61.02
11077;BME280;5591;42.626;23.380;2023-06-19T08:58:49;94334.69;;;24.34;61.88
11077;BME280;5591;42.626;23.380;2023-06-19T09:01:17;94338.41;;;24.53;60.81
11077;BME280;5591;42.626;23.380;2023-06-19T09:03:45;94303.53;;;24.43;60.62
11077;BME280;5591;42.626;23.380;2023-06-19T09:06:15;94339.25;;;24.03;62.20
11077;BME280;5591;42.626;23.380;2023-06-19T09:08:43;94343.81;;;24.28;62.32
11077;BME280;5591;42.626;23.380;2023-06-19T09:11:11;94340.03;;;24.74;62.74
11077;BME280;5591;42.626;23.380;2023-06-19T09:13:38;94342.41;;;24.90;59.89
11077;BME280;5591;42.626;23.380;2023-06-19T09:16:06;94335.16;;;24.91;61.08
11077;BME280;5591;42.626;23.380;2023-06-19T09:18:42;94294.94;;;24.61;59.45
11077;BME280;5591;42.626;23.380;2023-06-19T09:21:15;94338.59;;;25.01;56.27
11077;BME280;5591;42.626;23.380;2023-06-19T09:23:43;94340.72;;;25.14;55.05
11077;BME280;5591;42.626;23.380;2023-06-19T09:26:10;94340.63;;;25.39;54.39
11077;BME280;5591;42.626;23.380;2023-06-19T09:28:41;94322.91;;;25.81;54.61
11077;BME280;5591;42.626;23.380;2023-06-19T09:31:08;94339.88;;;25.34;53.78
11077;BME280;5591;42.626;23.380;2023-06-19T09:33:35;94268.72;;;25.11;53.40
11077;BME280;5591;42.626;23.380;2023-06-19T09:36:04;94333.91;;;25.85;53.75
11077;BME280;5591;42.626;23.380;2023-06-19T09:38:32;94332.88;;;25.28;54.73
11077;BME280;5591;42.626;23.380;2023-06-19T09:41:03;94332.44;;;25.01;53.32
11077;BME280;5591;42.626;23.380;2023-06-19T09:43:33;94343.13;;;25.79;52.95
11077;BME280;5591;42.626;23.380;2023-06-19T09:46:02;94330.97;;;25.33;51.01
11077;BME280;5591;42.626;23.380;2023-06-19T09:48:30;94355.19;;;25.81;49.31
11077;BME280;5591;42.626;23.380;2023-06-19T09:51:01;94359.22;;;25.84;47.95
11077;BME280;5591;42.626;23.380;2023-06-19T09:53:29;94335.38;;;26.44;47.39
11077;BME280;5591;42.626;23.380;2023-06-19T09:55:57;94325.72;;;26.95;46.22
11077;BME280;5591;42.626;23.380;2023-06-19T09:58:26;94332.97;;;26.43;48.76
11077;BME280;5591;42.626;23.380;2023-06-19T10:00:54;94295.53;;;25.75;48.07
11077;BME280;5591;42.626;23.380;2023-06-19T10:03:30;94328.06;;;25.25;48.30
11077;BME280;5591;42.626;23.380;2023-06-19T10:05:57;94334.75;;;25.37;49.16
11077;BME280;5591;42.626;23.380;2023-06-19T10:08:32;94319.66;;;25.89;48.82
11077;BME280;5591;42.626;23.380;2023-06-19T10:11:04;94321.28;;;26.24;47.01
11077;BME280;5591;42.626;23.380;2023-06-19T10:13:34;94339.09;;;25.77;45.72
11077;BME280;5591;42.626;23.380;2023-06-19T10:16:01;94325.19;;;25.65;45.63
11077;BME280;5591;42.626;23.380;2023-06-19T10:18:28;94323.16;;;26.23;46.01
11077;BME280;5591;42.626;23.380;2023-06-19T10:20:55;94309.75;;;26.80;46.92
11077;BME280;5591;42.626;23.380;2023-06-19T10:23:24;94343.19;;;25.69;46.52
11077;BME280;5591;42.626;23.380;2023-06-19T10:25:58;94284.41;;;25.91;44.59
11077;BME280;5591;42.626;23.380;2023-06-19T10:28:27;94317.31;;;26.50;43.18
11077;BME280;5591;42.626;23.380;2023-06-19T10:30:56;94293.28;;;26.25;43.62
11077;BME280;5591;42.626;23.380;2023-06-19T10:33:25;94308.94;;;25.79;44.71
11077;BME280;5591;42.626;23.380;2023-06-19T10:35:52;94298.06;;;25.99;44.40
11077;BME280;5591;42.626;23.380;2023-06-19T10:38:19;94301.00;;;25.60;46.08
11077;BME280;5591;42.626;23.380;2023-06-19T10:40:46;94263.53;;;25.35;45.70
11077;BME280;5591;42.626;23.380;2023-06-19T10:43:19;94303.84;;;25.78;47.33
11077;BME280;5591;42.626;23.380;2023-06-19T10:45:46;94305.72;;;26.21;44.95
11077;BME280;5591;42.626;23.380;2023-06-19T10:48:20;94309.28;;;26.11;42.45
11077;BME280;5591;42.626;23.380;2023-06-19T10:50:47;94300.44;;;26.68;42.93
11077;BME280;5591;42.626;23.380;2023-06-19T10:53:23;94304.28;;;27.09;42.27
11077;BME280;5591;42.626;23.380;2023-06-19T10:55:54;94304.03;;;27.10;43.95
11077;BME280;5591;42.626;23.380;2023-06-19T10:58:22;94305.28;;;26.37;45.14
11077;BME280;5591;42.626;23.380;2023-06-19T11:00:49;94301.81;;;26.65;44.13
11077;BME280;5591;42.626;23.380;2023-06-19T11:03:16;94308.00;;;26.37;43.50
11077;BME280;5591;42.626;23.380;2023-06-19T11:05:46;94293.34;;;27.00;42.82
11077;BME280;5591;42.626;23.380;2023-06-19T11:08:17;94286.28;;;26.81;44.92
11077;BME280;5591;42.626;23.380;2023-06-19T11:10:44;94290.06;;;26.80;44.72
11077;BME280;5591;42.626;23.380;2023-06-19T11:13:14;94295.22;;;26.76;45.45
11077;BME280;5591;42.626;23.380;2023-06-19T11:15:41;94261.75;;;27.66;44.85
11077;BME280;5591;42.626;23.380;2023-06-19T11:18:07;94285.53;;;28.52;42.60
11077;BME280;5591;42.626;23.380;2023-06-19T11:20:44;94287.81;;;29.30;41.41
11077;BME280;5591;42.626;23.380;2023-06-19T11:23:12;94281.00;;;28.92;41.84
11077;BME280;5591;42.626;23.380;2023-06-19T11:25:40;94324.75;;;28.31;44.18
11077;BME280;5591;42.626;23.380;2023-06-19T11:28:10;94280.34;;;28.05;45.37
11077;BME280;5591;42.626;23.380;2023-06-19T11:30:39;94287.66;;;28.55;44.34
11077;BME280;5591;42.626;23.380;2023-06-19T11:33:15;94294.09;;;28.85;44.42
11077;BME280;5591;42.626;23.380;2023-06-19T11:35:48;94275.56;;;28.02;47.13
11077;BME280;5591;42.626;23.380;2023-06-19T11:38:19;94278.09;;;29.02;44.91
11077;BME280;5591;42.626;23.380;2023-06-19T11:40:47;94277.09;;;30.45;42.46
11077;BME280;5591;42.626;23.380;2023-06-19T11:43:23;94290.97;;;28.65;46.19
11077;BME280;5591;42.626;23.380;2023-06-19T11:45:51;94278.41;;;29.55;45.83
11077;BME280;5591;42.626;23.380;2023-06-19T11:48:24;94274.53;;;27.79;49.12
11077;BME280;5591;42.626;23.380;2023-06-19T11:50:53;94265.84;;;29.72;46.74
11077;BME280;5591;42.626;23.380;2023-06-19T11:53:21;94268.44;;;30.43;44.95
11077;BME280;5591;42.626;23.380;2023-06-19T11:55:49;94268.13;;;30.14;44.28
11077;BME280;5591;42.626;23.380;2023-06-19T11:58:22;94271.56;;;30.59;44.14
11077;BME280;5591;42.626;23.380;2023-06-19T12:00:49;94263.25;;;30.55;43.19
11077;BME280;5591;42.626;23.380;2023-06-19T12:03:16;94257.81;;;31.08;42.90
11077;BME280;5591;42.626;23.380;2023-06-19T12:05:43;94253.75;;;31.27;42.03
11077;BME280;5591;42.626;23.380;2023-06-19T12:08:11;94261.03;;;30.05;44.34
11077;BME280;5591;42.626;23.380;2023-06-19T12:10:38;94264.25;;;29.44;45.81
11077;BME280;5591;42.626;23.380;2023-06-19T12:13:05;94258.06;;;30.89;44.01
11077;BME280;5591;42.626;23.380;2023-06-19T12:15:31;94250.97;;;31.10;43.34
11077;BME280;5591;42.626;23.380;2023-06-19T12:17:58;94249.25;;;32.29;41.24
11077;BME280;5591;42.626;23.380;2023-06-19T12:20:25;94255.09;;;31.55;41.89
11077;BME280;5591;42.626;23.380;2023-06-19T12:22:52;94260.66;;;29.35;43.57
11077;BME280;5591;42.626;23.380;2023-06-19T12:25:20;94257.44;;;28.79;45.89
11077;BME280;5591;42.626;23.380;2023-06-19T12:27:47;94253.69;;;28.94;47.28
11077;BME280;5591;42.626;23.380;2023-06-19T12:30:15;94242.63;;;30.15;45.14
11077;BME280;5591;42.626;23.380;2023-06-19T12:32:42;94247.47;;;29.20;47.95
11077;BME280;5591;42.626;23.380;2023-06-19T12:35:09;94248.44;;;29.87;46.79
11077;BME280;5591;42.626;23.380;2023-06-19T12:37:36;94246.94;;;29.81;47.25
11077;BME280;5591;42.626;23.380;2023-06-19T12:40:03;94250.22;;;29.42;48.21
11077;BME280;5591;42.626;23.380;2023-06-19T12:42:35;94245.59;;;30.05;46.76
11077;BME280;5591;42.626;23.380;2023-06-19T12:45:02;94243.72;;;31.36;43.12
11077;BME280;5591;42.626;23.380;2023-06-19T12:47:29;94242.69;;;32.30;41.01
11077;BME280;5591;42.626;23.380;2023-06-19T12:49:56;94249.38;;;31.82;41.73
11077;BME280;5591;42.626;23.380;2023-06-19T12:52:23;94242.56;;;31.20;42.22
11077;BME280;5591;42.626;23.380;2023-06-19T12:54:50;94242.63;;;33.10;39.61
11077;BME280;5591;42.626;23.380;2023-06-19T12:57:16;94245.41;;;31.96;38.91